Terminal Aerodrome Forecast
Issued by NWS

Home | Current Version | Previous Version | Text Only | Print | Product List | Glossary On
Versions: 1 2 3 4 5 6 7 8 9 10 11 12 13 14 15 16 17 18 19 20 21 22
000
FTUS42 KGSP 281137
TAFHKY
TAF
KHKY 281137Z 2812/2912 00000KT 1/4SM FG OVC002
      TEMPO 2813/2815 1SM BR SCT003 OVC008
     FM281500 VRB02KT 5SM BR SCT008 BKN020
     FM281700 19007KT P6SM SCT030
     FM290000 19003KT P6SM SCT050
     FM290600 20004KT 3SM BR SCT010
     FM290900 17003KT 1SM BR BKN005=

USA.gov is the U.S. government's official web portal to all federal, state and local government web resources and services.